TimeMDT,TemperatureF,Dew PointF,Humidity,Sea Level PressureIn,VisibilityMPH,Wind Direction,Wind SpeedMPH,Gust SpeedMPH,PrecipitationIn,Events,Conditions,WindDirDegrees,DateUTC
12:15 AM,52.0,44.1,74,30.27,10.0,SSE,4.6,-,N/A,,Mostly Cloudy,150,2013-05-15 06:15:00
12:35 AM,51.6,43.9,75,30.27,10.0,Calm,Calm,-,N/A,,Scattered Clouds,0,2013-05-15 06:35:00
12:55 AM,51.4,43.7,75,30.27,10.0,Calm,Calm,-,N/A,,Clear,0,2013-05-15 06:55:00
1:15 AM,50.5,43.7,77,30.27,10.0,South,5.8,-,N/A,,Scattered Clouds,180,2013-05-15 07:15:00
1:35 AM,51.6,43.0,72,30.25,10.0,WSW,5.8,-,N/A,,Scattered Clouds,250,2013-05-15 07:35:00
1:55 AM,51.1,42.6,73,30.24,10.0,SW,6.9,-,N/A,,Overcast,230,2013-05-15 07:55:00
2:15 AM,50.2,41.7,73,30.24,10.0,SW,5.8,-,N/A,,Scattered Clouds,220,2013-05-15 08:15:00
2:35 AM,50.5,40.1,67,30.24,10.0,West,6.9,-,N/A,,Clear,260,2013-05-15 08:35:00
2:55 AM,50.5,40.8,69,30.24,10.0,West,4.6,-,N/A,,Clear,260,2013-05-15 08:55:00
3:15 AM,49.6,41.0,72,30.24,10.0,WSW,5.8,-,N/A,,Clear,240,2013-05-15 09:15:00
3:35 AM,49.1,40.5,72,30.23,10.0,WSW,6.9,-,N/A,,Clear,250,2013-05-15 09:35:00
3:55 AM,49.1,40.8,73,30.23,10.0,West,6.9,-,N/A,,Clear,260,2013-05-15 09:55:00
4:15 AM,48.7,41.0,75,30.23,10.0,West,6.9,-,N/A,,Clear,280,2013-05-15 10:15:00
4:35 AM,49.3,41.0,73,30.24,10.0,WNW,4.6,-,N/A,,Clear,300,2013-05-15 10:35:00
4:55 AM,50.0,41.0,71,30.24,10.0,NW,3.5,-,N/A,,Clear,310,2013-05-15 10:55:00
5:15 AM,49.6,41.0,72,30.23,10.0,West,6.9,-,N/A,,Scattered Clouds,260,2013-05-15 11:15:00
5:35 AM,49.3,39.7,70,30.23,10.0,West,4.6,-,N/A,,Scattered Clouds,260,2013-05-15 11:35:00
5:55 AM,48.2,41.0,76,30.23,10.0,NNW,3.5,-,N/A,,Clear,340,2013-05-15 11:55:00
6:15 AM,48.2,40.8,76,30.23,10.0,WNW,4.6,-,N/A,,Clear,300,2013-05-15 12:15:00
6:35 AM,50.0,40.1,69,30.24,10.0,NW,5.8,-,N/A,,Clear,320,2013-05-15 12:35:00
6:55 AM,50.9,40.1,67,30.24,10.0,NW,4.6,-,N/A,,Scattered Clouds,310,2013-05-15 12:55:00
7:15 AM,52.0,39.7,63,30.24,10.0,Calm,Calm,-,N/A,,Mostly Cloudy,0,2013-05-15 13:15:00
7:35 AM,53.2,39.9,61,30.24,10.0,SSW,3.5,-,N/A,,Scattered Clouds,210,2013-05-15 13:35:00
7:55 AM,54.7,40.3,58,30.24,10.0,NNW,4.6,-,N/A,,Clear,340,2013-05-15 13:55:00
8:15 AM,55.6,39.0,54,30.24,10.0,North,4.6,-,N/A,,Clear,360,2013-05-15 14:15:00
8:35 AM,57.7,38.7,49,30.24,10.0,Calm,Calm,-,N/A,,Clear,0,2013-05-15 14:35:00
9:15 AM,59.5,39.9,48,30.23,10.0,Calm,Calm,-,N/A,,Overcast,0,2013-05-15 15:15:00
9:35 AM,60.3,40.3,48,30.23,10.0,Calm,Calm,-,N/A,,Mostly Cloudy,0,2013-05-15 15:35:00
9:55 AM,62.1,41.0,46,30.22,10.0,SW,4.6,-,N/A,,Mostly Cloudy,230,2013-05-15 15:55:00
10:15 AM,65.1,39.6,39,30.21,10.0,Calm,Calm,-,N/A,,Scattered Clouds,0,2013-05-15 16:15:00
10:35 AM,66.7,38.1,35,30.20,10.0,Calm,Calm,-,N/A,,Clear,0,2013-05-15 16:35:00
10:55 AM,69.6,35.1,28,30.19,10.0,Calm,Calm,-,N/A,,Clear,0,2013-05-15 16:55:00
11:15 AM,70.0,32.5,25,30.19,10.0,Calm,Calm,-,N/A,,Clear,0,2013-05-15 17:15:00
11:35 AM,72.9,31.1,21,30.18,10.0,Calm,Calm,-,N/A,,Scattered Clouds,0,2013-05-15 17:35:00
11:55 AM,69.4,34.7,28,30.19,10.0,ENE,15.0,19.6,N/A,,Scattered Clouds,70,2013-05-15 17:55:00
12:15 PM,67.6,35.2,30,30.19,10.0,East,11.5,21.9,N/A,,Clear,90,2013-05-15 18:15:00
12:35 PM,67.8,35.1,30,30.18,10.0,SE,10.4,17.3,N/A,,Mostly Cloudy,140,2013-05-15 18:35:00
12:55 PM,67.6,34.5,29,30.19,10.0,SE,10.4,18.4,N/A,,Overcast,130,2013-05-15 18:55:00
1:15 PM,66.6,34.0,30,30.19,10.0,SE,10.4,16.1,N/A,,Overcast,130,2013-05-15 19:15:00
1:35 PM,66.2,34.7,31,30.19,10.0,SE,6.9,-,N/A,,Mostly Cloudy,130,2013-05-15 19:35:00
1:55 PM,65.3,34.2,31,30.18,10.0,SE,8.1,-,N/A,,Mostly Cloudy,140,2013-05-15 19:55:00
2:15 PM,66.2,35.1,32,30.17,10.0,SE,6.9,-,N/A,,Mostly Cloudy,130,2013-05-15 20:15:00
2:35 PM,66.7,35.2,31,30.17,10.0,ESE,3.5,-,N/A,,Clear,110,2013-05-15 20:35:00
2:55 PM,66.6,34.2,30,30.17,10.0,SE,5.8,-,N/A,,Mostly Cloudy,130,2013-05-15 20:55:00
3:35 PM,64.6,39.0,39,30.17,10.0,North,10.4,-,N/A,,Clear,350,2013-05-15 21:35:00
3:55 PM,65.1,38.5,37,30.17,10.0,NNW,13.8,19.6,N/A,,Clear,340,2013-05-15 21:55:00
4:15 PM,65.7,37.9,36,30.17,10.0,North,11.5,18.4,N/A,,Clear,360,2013-05-15 22:15:00
4:35 PM,65.3,37.9,36,30.17,10.0,NNW,12.7,19.6,N/A,,Scattered Clouds,340,2013-05-15 22:35:00
4:55 PM,64.4,38.3,38,30.19,10.0,NNW,10.4,-,N/A,,Mostly Cloudy,330,2013-05-15 22:55:00
5:15 PM,63.3,39.2,41,30.19,10.0,North,17.3,21.9,N/A,,Overcast,350,2013-05-15 23:15:00
5:35 PM,58.8,46.6,64,30.22,7.0,SW,18.4,25.3,N/A,,Overcast,230,2013-05-15 23:35:00
5:55 PM,52.9,48.2,84,30.22,7.0,SSW,11.5,-,N/A,,Overcast,200,2013-05-15 23:55:00
6:15 PM,53.6,46.4,77,30.22,10.0,South,8.1,-,N/A,,Overcast,190,2013-05-16 00:15:00
6:35 PM,54.0,45.5,73,30.22,10.0,West,10.4,-,N/A,,Overcast,260,2013-05-16 00:35:00
6:55 PM,53.6,46.2,76,30.24,10.0,SW,12.7,17.3,N/A,,Overcast,230,2013-05-16 00:55:00
7:15 PM,52.2,47.1,83,30.23,5.0,SSW,3.5,-,N/A,,Overcast,210,2013-05-16 01:15:00
7:35 PM,52.0,48.2,87,30.22,10.0,Calm,Calm,-,N/A,,Mostly Cloudy,0,2013-05-16 01:35:00
7:55 PM,52.0,47.8,86,30.22,10.0,Calm,Calm,-,N/A,,Scattered Clouds,0,2013-05-16 01:55:00
8:15 PM,51.1,48.9,92,30.21,10.0,SSW,5.8,-,N/A,,Clear,200,2013-05-16 02:15:00
8:35 PM,50.5,47.8,90,30.21,10.0,WSW,3.5,-,N/A,,Clear,240,2013-05-16 02:35:00
8:55 PM,50.0,47.3,90,30.21,10.0,West,6.9,-,N/A,,Clear,260,2013-05-16 02:55:00
9:15 PM,50.2,47.1,89,30.23,10.0,West,4.6,-,N/A,,Scattered Clouds,270,2013-05-16 03:15:00
9:35 PM,50.2,46.9,89,30.24,10.0,West,3.5,-,N/A,,Overcast,260,2013-05-16 03:35:00
9:55 PM,50.4,47.5,90,30.23,10.0,Calm,Calm,-,N/A,,Overcast,0,2013-05-16 03:55:00
10:15 PM,49.3,45.7,87,30.24,10.0,WSW,5.8,-,N/A,,Scattered Clouds,250,2013-05-16 04:15:00
10:35 PM,48.4,44.8,87,30.23,10.0,West,3.5,-,N/A,,Clear,270,2013-05-16 04:35:00
10:55 PM,47.7,44.6,89,30.22,10.0,West,5.8,-,N/A,,Clear,260,2013-05-16 04:55:00
11:15 PM,47.7,43.7,86,30.22,10.0,WSW,6.9,-,N/A,,Clear,250,2013-05-16 05:15:00
11:35 PM,46.4,43.5,90,30.22,10.0,WNW,4.6,-,N/A,,Clear,290,2013-05-16 05:35:00
11:55 PM,46.9,43.3,87,30.21,10.0,NW,3.5,-,N/A,,Clear,310,2013-05-16 05:55:00